Junction City, OH

10:12 PM EDT on October 17, 2019 (GMT -0400)
W8VQT | | Change Station
Active Advisory: Frost Advisory

Elev 925 ft 39.66 °N, 82.37 °W | Updated 56 seconds ago

Overcast
Overcast
44.6 °F
Feels Like 45 °F
N
0
Wind Variable Wind from South
Gusts 0.0 mph

Today
High -- | Low -- °F
--% Chance of Precip.
Yesterday
High -- | Low -- °F
Precip. -- in
Pressure 30.00 in
Visibility 10.0 miles
Clouds Mostly Cloudy 3900 ft
Overcast 5500 ft
Windchill 45 °F
Dew Point 42 °F
Humidity 91%
Rainfall 0.00 in
Snow Depth Not available.
7:41 AM 6:47 PM
Waning Gibbous, 83% visible
METAR KLHQ 180153Z AUTO 32004KT 10SM BKN039 OVC055 10/04 A3000 RMK AO2 SLP158 T01000039
Pressure 30.00 in
Visibility 10.0 miles
Clouds Mostly Cloudy 3900 ft
Overcast 5500 ft
Windchill 45 °F
Dew Point 42 °F
Humidity 91%
Rainfall 0.00 in
Snow Depth Not available.
7:41 AM 6:47 PM
Waning Gibbous, 83% visible
METAR KLHQ 180153Z AUTO 32004KT 10SM BKN039 OVC055 10/04 A3000 RMK AO2 SLP158 T01000039

Get Your Daily Forecast Email!

Thanks for signing up!

Be on the lookout for a verification email in your inbox.

You'll start receiving severe weather alerts in your inbox..

×

10-Day Weather Forecast

Almanac

Astronomy

Oct. 17, 2019 Rise Set
Actual Time
Civil Twilight
Nautical Twilight
Astronomical Twilight
Moon
Length of Visible Light
Length of Day
Tomorrow will be .
, % of the Moon is Illuminated

Today's Extremes

State Highs State Lows

Community

WunderPhotos

Category 6

Welcome to Category 6. This is the collective home for Weather Underground's featured writeups by Dr. Jeff Masters (right), Bob Henson (left), Chris Burt, and other regular contributors.

Nearby

Air Quality

  Air Quality AQ Index Pollutant
Not available.

Snow Depth

Station Depth Elevation

Earthquake Activity

City Distance Mag. Time & Date
Minimum magnitude displayed is 2.5.

Coastal Water Temperatures

Place Temperature

Stations

Nearby Weather Stations

Station Location Temp. Windchill Dew Point Humidity Wind Precip. Elev Updated Type
                   

Watches & Warnings

Frost Advisory
Issued: 10:03 PM EDT Oct. 17, 2019 – National Weather Service

... Frost advisory remains in effect until 9 am EDT Friday...

* what... temperatures in the low to mid 30s, along with clear sky
and light wind, will result in frost formation.

* Where... portions of southeast Ohio, southwest Virginia,
northeast Kentucky and southeast and southern West Virginia.

* When... from 1 am to 9 am EDT Friday.

* Impacts... frost could kill sensitive outdoor vegetation if
left uncovered.

* Additional details... frost is most likely away from major
rivers.

Precautionary/preparedness actions...

Take steps now to protect tender plants from the cold.



Trm